Terminal Aerodrome Forecast
Issued by NWS

Home | Current Version | Previous Version | Text Only | Print | Product List | Glossary On
Versions: 1 2 3 4 5 6 7 8 9 10 11 12
000
FTUS44 KLZK 262321
TAFPBF
TAF
KPBF 262321Z 2700/2724 13006KT P6SM VCSH SCT050 SCT250
     FM270300 VRB03KT P6SM VCFG FEW050 BKN120
      TEMPO 2709/2713 5SM BR
     FM271300 VRB04KT P6SM VCTS SCT040CB BKN100 PROB30 2717/2723 5SM
      -TSRA=

USA.gov is the U.S. government's official web portal to all federal, state and local government web resources and services.